Time;durP1;ratioP1;P1;durP2;ratioP2;P2;SDS_P1;SDS_P2;PMS_P1;PMS_P2;Temp;Humidity;BMP_temperature;BMP_pressure;BME280_temperature;BME280_humidity;BME280_pressure;Samples;Min_cycle;Max_cycle;Signal;HPM_P1;HPM_P2
2022/06/04 00:01:00;;;;;;;6.93;6.27;;;23.10;68.70;;;-142.21;100.00;112049.66;5114300;28;20203;-71
2022/06/04 00:03:28;;;;;;;7.23;6.50;;;23.10;68.80;;;-142.21;100.00;112049.66;5114258;28;20200;-71
2022/06/04 00:05:58;;;;;;;7.87;6.07;;;23.00;68.90;;;-142.21;100.00;112049.66;5113911;28;20502;-71
2022/06/04 00:08:28;;;;;;;8.37;6.73;;;23.10;69.10;;;-142.21;100.00;112049.66;5114685;28;20295;-73
2022/06/04 00:16:30;;;;;;;8.23;7.53;;;22.70;70.60;;;-142.21;100.00;112049.66;5112729;28;20230;-72
2022/06/04 00:18:58;;;;;;;8.17;7.37;;;22.70;71.00;;;-142.21;100.00;112049.66;5113520;28;20216;-72
2022/06/04 00:21:25;;;;;;;9.03;8.23;;;22.60;70.90;;;-142.21;100.00;112049.66;5113483;28;20207;-72
2022/06/04 00:23:53;;;;;;;8.07;7.37;;;22.60;71.80;;;-142.21;100.00;112049.66;5113535;28;20208;-72
2022/06/04 00:26:21;;;;;;;7.67;6.97;;;22.60;70.70;;;-142.21;100.00;112049.66;5113662;28;20195;-72
2022/06/04 00:28:49;;;;;;;8.10;7.30;;;22.60;70.50;;;-142.21;100.00;112049.66;5113162;28;20202;-72
2022/06/04 00:31:19;;;;;;;8.67;7.93;;;22.60;70.70;;;-142.21;100.00;112049.66;5113753;27;20210;-71
2022/06/04 00:33:46;;;;;;;8.23;7.53;;;22.50;70.60;;;-142.21;100.00;112049.66;5111852;28;20607;-72
2022/06/04 00:36:14;;;;;;;8.07;7.37;;;22.60;70.40;;;-142.21;100.00;112049.66;5113936;28;20196;-72
2022/06/04 00:38:41;;;;;;;7.07;6.47;;;22.60;70.30;;;-142.21;100.00;112049.66;5114183;28;20210;-72
2022/06/04 00:41:23;;;;;;;7.57;6.37;;;22.50;70.20;;;-142.21;100.00;112049.66;5113591;28;20286;-71
2022/06/04 00:44:46;;;;;;;6.60;6.00;;;22.50;70.10;;;-142.21;100.00;112049.66;5109228;28;20192;-72
2022/06/04 00:47:23;;;;;;;6.80;6.20;;;22.50;70.40;;;-142.21;100.00;112049.66;5107170;28;20204;-70
2022/06/04 00:49:50;;;;;;;7.20;6.50;;;22.40;70.10;;;-142.21;100.00;112049.66;5098253;28;20207;-72
2022/06/04 00:52:17;;;;;;;7.43;6.73;;;22.40;70.10;;;-142.21;100.00;112049.66;5114111;28;20207;-72
2022/06/04 00:54:51;;;;;;;7.17;6.47;;;22.40;70.10;;;-142.21;100.00;112049.66;5112876;28;20195;-72
2022/06/04 00:57:54;;;;;;;7.27;6.57;;;22.40;70.90;;;-142.21;100.00;112049.66;5113389;28;20192;-73
2022/06/04 01:00:28;;;;;;;7.00;6.50;;;22.30;70.60;;;-142.21;100.00;112049.66;5113497;28;20216;-72
2022/06/04 01:03:14;;;;;;;8.40;7.60;;;22.30;70.40;;;-142.21;100.00;112049.66;5112642;28;20199;-73
2022/06/04 01:06:09;;;;;;;7.80;7.10;;;22.30;70.60;;;-142.21;100.00;112049.66;5113294;28;20727;-72
2022/06/04 01:09:02;;;;;;;8.83;7.30;;;22.20;70.90;;;-142.21;100.00;112049.66;5113034;28;20192;-72
2022/06/04 01:14:42;;;;;;;7.13;6.53;;;22.00;71.40;;;-142.21;100.00;112049.66;5109868;28;20235;-72
2022/06/04 01:17:21;;;;;;;7.37;6.77;;;21.90;71.30;;;-142.21;100.00;112049.66;5112995;28;20555;-72
2022/06/04 01:20:05;;;;;;;6.90;6.30;;;22.00;71.10;;;-142.21;100.00;112049.66;5111190;28;20600;-72
2022/06/04 01:23:10;;;;;;;7.30;6.70;;;22.00;70.70;;;-142.21;100.00;112049.66;5111257;28;20275;-73
2022/06/04 01:26:13;;;;;;;7.10;6.43;;;22.00;71.10;;;-142.21;100.00;112049.66;5112404;28;20206;-72
2022/06/04 01:29:02;;;;;;;7.60;6.90;;;21.90;71.10;;;-142.21;100.00;112049.66;5100011;28;20192;-70
2022/06/04 01:31:38;;;;;;;7.47;6.80;;;21.90;71.30;;;-142.21;100.00;112049.66;5112389;28;20218;-71
2022/06/04 01:34:11;;;;;;;7.53;6.83;;;22.00;71.00;;;-142.21;100.00;112049.66;5112333;28;20196;-72
2022/06/04 01:36:46;;;;;;;7.90;7.10;;;22.00;71.10;;;-142.21;100.00;112049.66;5112950;28;20198;-72
2022/06/04 01:39:23;;;;;;;7.73;7.00;;;21.90;71.30;;;-142.21;100.00;112049.66;5112317;28;20250;-73
2022/06/04 01:41:55;;;;;;;7.73;7.00;;;21.90;71.30;;;-142.21;100.00;112049.66;5111664;28;20658;-72
2022/06/04 01:44:30;;;;;;;7.60;6.90;;;21.90;71.40;;;-142.21;100.00;112049.66;5112111;28;20282;-72
2022/06/04 01:47:04;;;;;;;8.33;7.50;;;21.90;71.60;;;-142.21;100.00;112049.66;5111515;28;20198;-71
2022/06/04 01:49:40;;;;;;;7.83;6.87;;;21.80;71.60;;;-142.21;100.00;112049.66;5112629;28;20675;-72
2022/06/04 01:52:15;;;;;;;8.20;7.37;;;21.80;71.80;;;-142.21;100.00;112049.66;5112162;28;20194;-72
2022/06/04 01:54:49;;;;;;;8.37;7.63;;;21.90;71.70;;;-142.21;100.00;112049.66;5110895;28;20216;-72
2022/06/04 01:57:24;;;;;;;8.27;7.57;;;21.80;71.80;;;-142.21;100.00;112049.66;5111614;28;20643;-72
2022/06/04 02:00:03;;;;;;;7.53;6.83;;;21.80;71.90;;;-142.21;100.00;112049.66;5111026;28;20223;-71
2022/06/04 02:02:38;;;;;;;7.23;6.57;;;21.80;71.90;;;-142.21;100.00;112049.66;5111714;28;20679;-72
2022/06/04 02:05:14;;;;;;;7.00;6.30;;;21.80;71.80;;;-142.21;100.00;112049.66;5111247;28;20549;-71
2022/06/04 02:07:49;;;;;;;6.80;6.20;;;21.80;71.60;;;-142.21;100.00;112049.66;5112253;28;20644;-71
2022/06/04 02:10:25;;;;;;;7.20;6.60;;;21.80;71.50;;;-142.21;100.00;112049.66;5111694;28;20322;-72
2022/06/04 02:12:59;;;;;;;6.87;6.27;;;21.70;71.90;;;-142.21;100.00;112049.66;5111509;28;20707;-72
2022/06/04 02:15:37;;;;;;;7.60;6.90;;;21.70;71.10;;;-142.21;100.00;112049.66;5092152;28;20184;-71
2022/06/04 02:18:09;;;;;;;7.33;6.70;;;21.70;71.30;;;-142.21;100.00;112049.66;5098264;28;20656;-70
2022/06/04 02:20:36;;;;;;;6.73;6.23;;;21.70;71.30;;;-142.21;100.00;112049.66;5112237;28;20247;-71
2022/06/04 02:23:04;;;;;;;7.40;6.70;;;21.70;71.50;;;-142.21;100.00;112049.66;5110433;28;20191;-72
2022/06/04 02:25:32;;;;;;;7.33;6.67;;;21.60;71.50;;;-142.21;100.00;112049.66;5111002;28;20621;-72
2022/06/04 02:28:01;;;;;;;7.80;6.97;;;21.60;71.50;;;-142.21;100.00;112049.66;5111318;28;20202;-71
2022/06/04 02:30:44;;;;;;;7.17;6.57;;;21.60;71.60;;;-142.21;100.00;112049.66;5111787;28;20223;-71
2022/06/04 02:33:20;;;;;;;7.27;6.67;;;21.50;71.80;;;-142.21;100.00;112049.66;5111475;28;20188;-72
2022/06/04 02:35:58;;;;;;;8.00;7.40;;;21.50;71.80;;;-142.21;100.00;112049.66;5111651;28;20199;-71
2022/06/04 02:38:35;;;;;;;7.47;6.77;;;21.50;71.70;;;-142.21;100.00;112049.66;5112088;28;20204;-71
2022/06/04 02:41:10;;;;;;;8.17;7.33;;;21.40;71.50;;;-142.21;100.00;112049.66;5111238;28;20187;-71
2022/06/04 02:43:46;;;;;;;8.40;7.70;;;21.40;72.00;;;-142.21;100.00;112049.66;5111418;28;20179;-72
2022/06/04 02:46:24;;;;;;;10.73;6.97;;;21.40;72.40;;;-142.21;100.00;112049.66;5111255;28;20195;-71
2022/06/04 02:49:04;;;;;;;7.23;6.63;;;21.30;72.50;;;-142.21;100.00;112049.66;5111568;28;20194;-71
2022/06/04 02:51:37;;;;;;;7.40;6.70;;;21.30;72.30;;;-142.21;100.00;112049.66;5111911;28;20303;-71
2022/06/04 02:54:13;;;;;;;7.03;6.33;;;21.30;72.20;;;-142.21;100.00;112049.66;5110809;28;20187;-72
2022/06/04 02:56:45;;;;;;;7.30;6.70;;;21.30;72.20;;;-142.21;100.00;112049.66;5078372;28;20679;-71
2022/06/04 02:59:18;;;;;;;7.13;6.53;;;21.30;72.20;;;-142.21;100.00;112049.66;5115104;28;20192;-71
2022/06/04 03:01:52;;;;;;;7.57;6.97;;;21.30;73.00;;;-142.21;100.00;112049.66;5115842;28;20278;-71
2022/06/04 03:04:19;;;;;;;7.43;6.73;;;21.30;72.50;;;-142.21;100.00;112049.66;5115903;28;20284;-70
2022/06/04 03:06:47;;;;;;;7.57;6.87;;;21.30;72.60;;;-142.21;100.00;112049.66;5115990;28;20294;-72
2022/06/04 03:09:19;;;;;;;8.17;7.40;;;21.20;72.70;;;-142.21;100.00;112049.66;5114892;28;20222;-72
2022/06/04 03:11:49;;;;;;;8.03;7.33;;;21.20;73.00;;;-142.21;100.00;112049.66;5110358;28;20666;-72
2022/06/04 03:14:19;;;;;;;8.33;7.53;;;21.20;72.90;;;-142.21;100.00;112049.66;5115105;28;20212;-71
2022/06/04 03:16:52;;;;;;;7.40;6.70;;;21.20;72.90;;;-142.21;100.00;112049.66;5115715;28;20210;-71
2022/06/04 03:19:19;;;;;;;7.07;6.47;;;21.20;73.00;;;-142.21;100.00;112049.66;5115033;28;20224;-70
2022/06/04 03:21:46;;;;;;;7.77;6.97;;;21.20;72.80;;;-142.21;100.00;112049.66;5108134;28;20287;-71
2022/06/04 03:24:17;;;;;;;8.10;6.80;;;21.20;72.90;;;-142.21;100.00;112049.66;5114311;28;20291;-71
2022/06/04 03:26:44;;;;;;;7.37;6.77;;;21.20;73.20;;;-142.21;100.00;112049.66;5115014;28;20230;-72
2022/06/04 03:29:11;;;;;;;7.67;6.97;;;21.10;73.20;;;-142.21;100.00;112049.66;5114690;28;20231;-71
2022/06/04 03:31:39;;;;;;;8.30;7.43;;;21.10;73.10;;;-142.21;100.00;112049.66;5100013;28;20224;-71
2022/06/04 03:34:07;;;;;;;7.63;6.60;;;21.20;73.40;;;-142.21;100.00;112049.66;5111272;28;20206;-71
2022/06/04 03:36:36;;;;;;;7.73;7.00;;;21.20;73.30;;;-142.21;100.00;112049.66;5114714;28;20206;-71
2022/06/04 03:39:05;;;;;;;7.73;6.90;;;21.20;73.20;;;-142.21;100.00;112049.66;5114423;28;20255;-71
2022/06/04 03:41:32;;;;;;;7.70;6.90;;;21.30;73.30;;;-142.21;100.00;112049.66;5114864;28;20690;-71
2022/06/04 03:44:00;;;;;;;6.83;6.23;;;21.30;73.30;;;-142.21;100.00;112049.66;5114244;28;20202;-71
2022/06/04 03:46:28;;;;;;;7.23;6.60;;;21.30;73.20;;;-142.21;100.00;112049.66;5114913;28;20256;-71
2022/06/04 03:48:57;;;;;;;7.07;6.47;;;21.30;73.00;;;-142.21;100.00;112049.66;5115075;28;20195;-71
2022/06/04 03:51:29;;;;;;;6.63;6.03;;;21.20;73.50;;;-142.21;100.00;112049.66;5115130;28;20219;-71
2022/06/04 03:53:56;;;;;;;7.57;6.43;;;21.30;72.90;;;-142.21;100.00;112049.66;5114462;28;20552;-71
2022/06/04 03:56:25;;;;;;;7.27;6.53;;;21.30;72.90;;;-142.21;100.00;112049.66;5111322;28;20211;-71
2022/06/04 03:58:53;;;;;;;7.07;6.47;;;21.30;73.00;;;-142.21;100.00;112049.66;5114593;28;20205;-71
2022/06/04 04:01:24;;;;;;;8.03;7.30;;;21.30;73.20;;;-142.21;100.00;112049.66;5113808;28;20196;-71
2022/06/04 04:03:51;;;;;;;6.70;6.00;;;21.30;73.30;;;-142.21;100.00;112049.66;5114660;28;20632;-71
2022/06/04 04:06:24;;;;;;;8.00;7.13;;;21.30;72.90;;;-142.21;100.00;112049.66;5114144;28;20200;-71
2022/06/04 04:08:54;;;;;;;6.80;6.20;;;21.30;72.90;;;-142.21;100.00;112049.66;5100602;28;20550;-71
2022/06/04 04:11:25;;;;;;;7.20;6.50;;;21.30;72.80;;;-142.21;100.00;112049.66;5113064;28;20310;-71
2022/06/04 04:13:54;;;;;;;6.73;6.13;;;21.40;73.00;;;-142.21;100.00;112049.66;5102914;28;20578;-71
2022/06/04 04:16:23;;;;;;;7.77;6.73;;;21.40;73.10;;;-142.21;100.00;112049.66;5113913;28;20203;-71
2022/06/04 04:18:51;;;;;;;6.97;6.37;;;21.40;73.50;;;-142.21;100.00;112049.66;5114528;28;20269;-72
2022/06/04 04:21:22;;;;;;;7.17;6.53;;;21.40;73.60;;;-142.21;100.00;112049.66;5114036;28;20208;-71
2022/06/04 04:23:49;;;;;;;7.67;6.97;;;21.40;73.70;;;-142.21;100.00;112049.66;5113367;28;20192;-71
2022/06/04 04:26:18;;;;;;;7.40;6.67;;;21.40;74.00;;;-142.21;100.00;112049.66;5112960;28;20204;-71
2022/06/04 04:28:45;;;;;;;7.13;6.53;;;21.40;73.80;;;-142.21;100.00;112049.66;5114113;28;20286;-71
2022/06/04 04:31:17;;;;;;;7.37;6.77;;;21.50;73.70;;;-142.21;100.00;112049.66;5113268;28;20272;-72
2022/06/04 04:33:44;;;;;;;7.00;6.30;;;21.50;73.60;;;-142.21;100.00;112049.66;5113922;28;20199;-71
2022/06/04 04:36:11;;;;;;;6.23;5.73;;;21.50;73.60;;;-142.21;100.00;112049.66;5112671;28;20282;-72
2022/06/04 04:38:39;;;;;;;7.00;6.23;;;21.60;74.10;;;-142.21;100.00;112049.66;5113602;28;20271;-71
2022/06/04 04:41:11;;;;;;;6.93;6.23;;;21.60;74.40;;;-142.21;100.00;112049.66;5113222;28;20290;-72
2022/06/04 04:43:41;;;;;;;7.33;6.57;;;21.60;74.50;;;-142.21;100.00;112049.66;5077960;28;20196;-72
2022/06/04 04:46:12;;;;;;;7.33;6.47;;;21.70;74.40;;;-142.21;100.00;112049.66;5113616;28;20286;-72
2022/06/04 04:48:40;;;;;;;8.87;6.70;;;21.80;74.30;;;-142.21;100.00;112049.66;5113472;28;20184;-72
2022/06/04 04:51:12;;;;;;;8.70;6.90;;;21.90;74.10;;;-142.21;100.00;112049.66;5113420;28;20326;-72
2022/06/04 04:53:39;;;;;;;7.07;6.37;;;21.90;74.30;;;-142.21;100.00;112049.66;5113253;28;20184;-72
2022/06/04 04:56:07;;;;;;;8.90;6.80;;;22.00;73.70;;;-142.21;100.00;112049.66;5112583;28;20196;-72
2022/06/04 04:58:34;;;;;;;8.70;6.43;;;22.10;73.80;;;-142.21;100.00;112049.66;5113175;28;20232;-72
2022/06/04 05:01:03;;;;;;;13.60;8.03;;;22.10;73.80;;;-142.21;100.00;112049.66;5076815;28;20198;-72
2022/06/04 05:03:31;;;;;;;7.50;6.80;;;22.10;73.90;;;-142.21;100.00;112049.66;5113285;28;20200;-72
2022/06/04 05:05:59;;;;;;;6.97;6.23;;;22.20;74.30;;;-142.21;100.00;112049.66;5113477;28;20233;-72
2022/06/04 05:08:26;;;;;;;7.00;6.30;;;22.30;74.10;;;-142.21;100.00;112049.66;5112969;28;20199;-72
2022/06/04 05:10:54;;;;;;;7.00;5.70;;;22.30;73.60;;;-142.21;100.00;112049.66;5112552;28;20234;-72
2022/06/04 05:13:21;;;;;;;7.40;6.70;;;22.20;73.80;;;-142.21;100.00;112049.66;5112205;28;20232;-72
2022/06/04 05:15:49;;;;;;;7.43;6.77;;;22.10;73.60;;;-142.21;100.00;112049.66;5113398;28;20667;-72
2022/06/04 05:18:17;;;;;;;7.50;6.80;;;22.10;74.00;;;-142.21;100.00;112049.66;5112283;28;20690;-72
2022/06/04 05:20:44;;;;;;;7.53;6.83;;;22.20;74.00;;;-142.21;100.00;112049.66;5112377;28;20250;-71
2022/06/04 05:23:12;;;;;;;7.90;6.33;;;22.20;73.70;;;-142.21;100.00;112049.66;5111581;28;20283;-72
2022/06/04 05:25:42;;;;;;;7.40;6.60;;;22.10;73.80;;;-142.21;100.00;112049.66;5112165;28;20196;-71
2022/06/04 05:28:09;;;;;;;7.90;7.20;;;22.10;73.90;;;-142.21;100.00;112049.66;5112256;28;20291;-71
2022/06/04 05:30:36;;;;;;;6.80;6.10;;;22.20;74.00;;;-142.21;100.00;112049.66;5112916;28;20303;-71
2022/06/04 05:33:07;;;;;;;7.73;6.93;;;22.20;73.60;;;-142.21;100.00;112049.66;5112560;28;20192;-71
2022/06/04 05:35:36;;;;;;;7.97;7.03;;;22.30;73.60;;;-142.21;100.00;112049.66;5112387;28;20231;-71
2022/06/04 05:38:03;;;;;;;7.30;6.60;;;22.40;73.80;;;-142.21;100.00;112049.66;5098334;28;20301;-71
2022/06/04 05:40:30;;;;;;;6.47;5.97;;;22.40;73.50;;;-142.21;100.00;112049.66;5112479;28;20286;-72
2022/06/04 05:42:57;;;;;;;8.10;7.30;;;22.40;72.80;;;-142.21;100.00;112049.66;5112455;28;20199;-72
2022/06/04 05:45:24;;;;;;;7.80;7.13;;;22.40;72.50;;;-142.21;100.00;112049.66;5112126;28;20278;-72
2022/06/04 05:47:54;;;;;;;7.20;6.50;;;22.40;72.30;;;-142.21;100.00;112049.66;5112433;28;20282;-71
2022/06/04 05:50:21;;;;;;;6.73;6.13;;;22.40;72.60;;;-142.21;100.00;112049.66;5110874;28;20203;-72
2022/06/04 05:52:50;;;;;;;7.23;6.53;;;22.30;73.80;;;-142.21;100.00;112049.66;5112579;28;20298;-72
2022/06/04 05:55:17;;;;;;;7.47;6.70;;;22.30;73.90;;;-142.21;100.00;112049.66;5111380;28;20291;-72
2022/06/04 05:57:44;;;;;;;8.17;7.40;;;22.30;73.10;;;-142.21;100.00;112049.66;5112583;28;20191;-72
2022/06/04 06:00:14;;;;;;;7.73;7.03;;;22.40;73.10;;;-142.21;100.00;112049.66;5110980;28;20287;-72
2022/06/04 06:02:44;;;;;;;7.80;7.20;;;22.30;73.00;;;-142.21;100.00;112049.66;5111957;28;20200;-72
2022/06/04 06:05:11;;;;;;;7.73;7.03;;;22.40;73.80;;;-142.21;100.00;112049.66;5111656;28;20198;-72
2022/06/04 06:07:38;;;;;;;9.07;8.27;;;22.40;73.10;;;-142.21;100.00;112049.66;5111331;28;20208;-72
2022/06/04 06:10:08;;;;;;;9.47;8.33;;;22.40;73.20;;;-142.21;100.00;112049.66;5111471;28;20229;-72
2022/06/04 06:12:35;;;;;;;8.33;7.57;;;22.40;73.30;;;-142.21;100.00;112049.66;5111642;28;20302;-72
2022/06/04 06:15:02;;;;;;;9.30;7.80;;;22.40;73.30;;;-142.21;100.00;112049.66;5112694;28;20210;-72
2022/06/04 06:17:29;;;;;;;9.17;8.37;;;22.50;73.30;;;-142.21;100.00;112049.66;5111595;28;20290;-72
2022/06/04 06:19:57;;;;;;;10.13;8.57;;;22.50;73.20;;;-142.21;100.00;112049.66;5112007;28;20618;-72
2022/06/04 06:22:24;;;;;;;8.47;7.67;;;22.60;73.20;;;-142.21;100.00;112049.66;5108117;28;20290;-72
2022/06/04 06:24:51;;;;;;;9.80;8.90;;;22.60;73.20;;;-142.21;100.00;112049.66;5104525;28;20236;-72
2022/06/04 06:27:19;;;;;;;11.70;10.57;;;22.60;73.20;;;-142.21;100.00;112049.66;5111096;28;20207;-72
2022/06/04 06:29:46;;;;;;;13.93;10.90;;;22.60;73.70;;;-142.21;100.00;112049.66;5109209;28;20286;-72
2022/06/04 06:32:14;;;;;;;11.83;10.63;;;22.40;74.10;;;-142.21;100.00;112049.66;5108229;28;20302;-73
2022/06/04 06:34:41;;;;;;;12.17;10.93;;;22.30;74.50;;;-142.21;100.00;112049.66;5110412;28;20191;-72
2022/06/04 06:37:08;;;;;;;12.77;11.43;;;22.30;75.50;;;-142.21;100.00;112049.66;5110076;28;20250;-71
2022/06/04 06:39:35;;;;;;;11.07;9.83;;;22.20;76.20;;;-142.21;100.00;112049.66;5111994;28;20586;-71
2022/06/04 06:42:03;;;;;;;12.03;10.83;;;22.20;76.20;;;-142.21;100.00;112049.66;5112504;28;20286;-71
2022/06/04 06:44:31;;;;;;;10.50;9.60;;;22.30;76.40;;;-142.21;100.00;112049.66;5111917;28;20283;-72
2022/06/04 06:46:59;;;;;;;14.87;11.03;;;22.40;75.60;;;-142.21;100.00;112049.66;5112056;28;20206;-71
2022/06/04 06:49:30;;;;;;;11.70;10.60;;;22.50;76.00;;;-142.21;100.00;112049.66;5111721;28;20203;-72
2022/06/04 06:52:00;;;;;;;11.97;10.77;;;22.50;75.80;;;-142.21;100.00;112049.66;5094374;28;20219;-72
2022/06/04 06:54:33;;;;;;;12.83;11.53;;;22.50;76.60;;;-142.21;100.00;112049.66;5111818;28;20204;-72
2022/06/04 06:57:03;;;;;;;11.53;10.43;;;22.60;76.00;;;-142.21;100.00;112049.66;5103234;28;20196;-72
2022/06/04 06:59:31;;;;;;;12.50;11.37;;;22.70;75.70;;;-142.21;100.00;112049.66;5111589;28;20210;-71
2022/06/04 07:02:00;;;;;;;12.20;11.00;;;22.70;76.50;;;-142.21;100.00;112049.66;5112379;28;20279;-71
2022/06/04 07:04:29;;;;;;;12.93;11.73;;;22.80;76.80;;;-142.21;100.00;112049.66;5111546;28;20296;-71
2022/06/04 07:06:59;;;;;;;12.17;10.97;;;22.90;77.10;;;-142.21;100.00;112049.66;5112063;28;20197;-71
2022/06/04 07:09:30;;;;;;;11.90;10.80;;;23.00;77.50;;;-142.21;100.00;112049.66;5111431;28;20273;-71
2022/06/04 07:11:57;;;;;;;13.07;11.20;;;23.00;76.90;;;-142.21;100.00;112049.66;5112507;28;20544;-71
2022/06/04 07:14:26;;;;;;;12.57;11.37;;;23.10;76.20;;;-142.21;100.00;112049.66;5111678;28;20204;-73
2022/06/04 07:16:57;;;;;;;12.47;11.27;;;23.10;76.20;;;-142.21;100.00;112049.66;5112157;28;20204;-71
2022/06/04 07:19:26;;;;;;;12.77;11.57;;;23.20;75.80;;;-142.21;100.00;112049.66;5111086;28;20192;-71
2022/06/04 07:21:56;;;;;;;12.33;10.83;;;23.30;76.00;;;-142.21;100.00;112049.66;5112560;28;20533;-70
2022/06/04 07:24:24;;;;;;;12.40;11.03;;;23.40;76.40;;;-142.21;100.00;112049.66;5108978;28;20199;-72
2022/06/04 07:26:52;;;;;;;14.10;12.53;;;23.40;75.90;;;-142.21;100.00;112049.66;5112211;28;20208;-71
2022/06/04 07:29:20;;;;;;;13.40;12.10;;;23.40;74.80;;;-142.21;100.00;112049.66;5106842;28;20197;-72
2022/06/04 07:31:48;;;;;;;12.73;11.53;;;23.30;74.90;;;-142.21;100.00;112049.66;5111574;28;20259;-71
2022/06/04 07:34:16;;;;;;;13.17;11.97;;;23.10;75.30;;;-142.21;100.00;112049.66;5111530;28;20226;-73
2022/06/04 07:36:46;;;;;;;13.33;12.03;;;23.10;76.10;;;-142.21;100.00;112049.66;5112220;28;20639;-71
2022/06/04 07:39:17;;;;;;;14.40;13.00;;;22.90;76.00;;;-142.21;100.00;112049.66;5111682;28;20211;-72
2022/06/04 07:41:48;;;;;;;14.10;12.90;;;22.90;76.50;;;-142.21;100.00;112049.66;5112600;28;20211;-72
2022/06/04 07:44:17;;;;;;;14.30;12.43;;;23.00;76.90;;;-142.21;100.00;112049.66;5109636;28;20396;-72
2022/06/04 07:46:47;;;;;;;15.63;13.33;;;23.20;77.00;;;-142.21;100.00;112049.66;5115471;28;20211;-71
2022/06/04 07:49:17;;;;;;;13.50;12.10;;;23.30;76.80;;;-142.21;100.00;112049.66;5115120;28;20294;-71
2022/06/04 07:51:45;;;;;;;13.70;12.30;;;23.40;76.20;;;-142.21;100.00;112049.66;5109657;28;20225;-71
2022/06/04 07:54:15;;;;;;;13.70;12.27;;;23.40;75.80;;;-142.21;100.00;112049.66;5115271;28;20208;-73
2022/06/04 07:56:43;;;;;;;13.20;11.90;;;23.40;76.10;;;-142.21;100.00;112049.66;5115743;28;20211;-72
2022/06/04 07:59:16;;;;;;;12.97;11.77;;;23.40;75.50;;;-142.21;100.00;112049.66;5115219;28;20204;-71
2022/06/04 08:01:44;;;;;;;14.13;12.83;;;23.40;75.40;;;-142.21;100.00;112049.66;5115357;28;20219;-71
2022/06/04 08:04:13;;;;;;;14.23;12.87;;;23.50;75.70;;;-142.21;100.00;112049.66;5113690;28;20221;-72
2022/06/04 08:06:42;;;;;;;13.40;12.27;;;23.40;76.00;;;-142.21;100.00;112049.66;5114009;28;20298;-72
2022/06/04 08:09:10;;;;;;;14.33;12.93;;;23.50;76.60;;;-142.21;100.00;112049.66;5114028;28;20196;-71
2022/06/04 08:11:38;;;;;;;14.13;12.63;;;23.50;75.90;;;-142.21;100.00;112049.66;5115406;28;20786;-72
2022/06/04 08:14:11;;;;;;;13.67;12.37;;;23.50;75.20;;;-142.21;100.00;112049.66;5115007;28;20196;-71
2022/06/04 08:16:43;;;;;;;12.87;11.67;;;23.40;75.80;;;-142.21;100.00;112049.66;5114986;28;20234;-72
2022/06/04 08:19:11;;;;;;;13.53;12.23;;;23.50;76.10;;;-142.21;100.00;112049.66;5114066;27;20503;-71
2022/06/04 08:21:41;;;;;;;14.60;13.07;;;23.50;75.50;;;-142.21;100.00;112049.66;5115196;28;20208;-71
2022/06/04 08:24:11;;;;;;;13.47;12.07;;;23.50;75.80;;;-142.21;100.00;112049.66;5113673;28;20205;-70
2022/06/04 08:26:41;;;;;;;13.97;12.60;;;23.50;75.80;;;-142.21;100.00;112049.66;5114426;28;20539;-70
2022/06/04 08:29:09;;;;;;;14.27;12.97;;;23.50;76.10;;;-142.21;100.00;112049.66;5115039;28;20208;-70
2022/06/04 08:31:36;;;;;;;14.43;13.13;;;23.40;76.30;;;-142.21;100.00;112049.66;5113633;28;20219;-70
2022/06/04 08:34:04;;;;;;;13.77;12.40;;;23.30;76.40;;;-142.21;100.00;112049.66;5114580;28;20283;-72
2022/06/04 08:36:32;;;;;;;13.13;11.83;;;23.40;76.70;;;-142.21;100.00;112049.66;5112558;28;20245;-71
2022/06/04 08:39:02;;;;;;;12.37;11.23;;;23.50;76.90;;;-142.21;100.00;112049.66;5107088;28;20203;-72
2022/06/04 08:42:00;;;;;;;13.33;11.97;;;23.50;77.40;;;-142.21;100.00;112049.66;5113943;28;20208;-71
2022/06/04 08:44:33;;;;;;;13.63;12.33;;;23.60;78.10;;;-142.21;100.00;112049.66;5113716;28;20200;-71
2022/06/04 08:47:15;;;;;;;13.13;11.87;;;23.70;77.40;;;-142.21;100.00;112049.66;5100742;28;20194;-72
2022/06/04 08:49:48;;;;;;;14.67;13.27;;;23.70;77.90;;;-142.21;100.00;112049.66;5110043;28;20194;-71
2022/06/04 08:52:21;;;;;;;13.23;11.93;;;23.80;77.40;;;-142.21;100.00;112049.66;5113404;28;20213;-72
2022/06/04 08:57:48;;;;;;;13.23;12.00;;;23.80;76.20;;;-142.21;100.00;112049.66;5113455;28;20733;-70
2022/06/04 09:00:24;;;;;;;13.93;12.63;;;23.80;75.70;;;-142.21;100.00;112049.66;5112024;28;20196;-73
2022/06/04 09:03:13;;;;;;;13.77;12.47;;;23.80;76.30;;;-142.21;100.00;112049.66;5114042;28;20220;-72
2022/06/04 09:06:08;;;;;;;14.47;13.20;;;23.80;76.10;;;-142.21;100.00;112049.66;5113416;28;20227;-69
2022/06/04 09:08:51;;;;;;;14.03;12.80;;;23.80;77.30;;;-142.21;100.00;112049.66;5108253;28;20297;-71
2022/06/04 09:11:30;;;;;;;14.57;13.17;;;23.80;76.90;;;-142.21;100.00;112049.66;5112733;28;20323;-71
2022/06/04 09:14:23;;;;;;;16.23;14.60;;;23.80;76.10;;;-142.21;100.00;112049.66;5113895;28;20205;-71
2022/06/04 09:16:59;;;;;;;15.07;13.67;;;23.80;76.20;;;-142.21;100.00;112049.66;5104138;28;20683;-72
2022/06/04 09:19:33;;;;;;;15.83;14.23;;;23.90;76.20;;;-142.21;100.00;112049.66;5113423;28;20288;-70
2022/06/04 09:22:02;;;;;;;14.93;13.43;;;23.90;75.60;;;-142.21;100.00;112049.66;5113892;28;20190;-72
2022/06/04 09:24:30;;;;;;;15.47;13.97;;;23.90;75.70;;;-142.21;100.00;112049.66;5112982;28;20253;-72
2022/06/04 09:27:14;;;;;;;16.83;14.77;;;24.00;75.50;;;-142.21;100.00;112049.66;5113666;28;20205;-71
2022/06/04 09:30:06;;;;;;;14.97;13.57;;;24.00;75.70;;;-142.21;100.00;112049.66;5112540;28;20194;-72
2022/06/04 09:32:49;;;;;;;17.27;15.63;;;23.90;76.10;;;-142.21;100.00;112049.66;5098758;28;20253;-71
2022/06/04 09:35:19;;;;;;;16.37;14.80;;;23.90;75.80;;;-142.21;100.00;112049.66;5112234;28;20221;-71
2022/06/04 09:37:49;;;;;;;15.57;14.17;;;23.80;75.70;;;-142.21;100.00;112049.66;5113191;28;20202;-71
2022/06/04 09:40:27;;;;;;;16.67;15.03;;;23.80;75.20;;;-142.21;100.00;112049.66;5111892;28;20286;-71
2022/06/04 09:43:12;;;;;;;16.80;15.10;;;23.90;75.70;;;-142.21;100.00;112049.66;5113242;28;20193;-71
2022/06/04 09:45:39;;;;;;;16.83;15.10;;;23.90;76.00;;;-142.21;100.00;112049.66;5110936;28;20547;-72
2022/06/04 09:48:22;;;;;;;17.40;15.70;;;24.00;74.80;;;-142.21;100.00;112049.66;5113475;28;20297;-72
2022/06/04 09:50:55;;;;;;;17.30;15.60;;;24.00;74.90;;;-142.21;100.00;112049.66;5110747;28;20288;-72
2022/06/04 09:53:27;;;;;;;20.00;16.60;;;24.00;74.80;;;-142.21;100.00;112049.66;5103840;28;20297;-71
2022/06/04 09:55:58;;;;;;;17.00;15.37;;;24.10;74.80;;;-142.21;100.00;112049.66;5113339;28;20191;-72
2022/06/04 09:58:32;;;;;;;19.27;17.37;;;24.20;74.40;;;-142.21;100.00;112049.66;5111548;28;20639;-71
2022/06/04 10:01:02;;;;;;;17.17;15.57;;;24.20;73.10;;;-142.21;100.00;112049.66;5112244;28;20196;-71
2022/06/04 10:03:36;;;;;;;18.80;16.80;;;24.20;73.80;;;-142.21;100.00;112049.66;5112370;28;20274;-71
2022/06/04 10:06:07;;;;;;;18.80;16.87;;;24.20;74.10;;;-142.21;100.00;112049.66;5109978;28;20315;-72
2022/06/04 10:11:22;;;;;;;18.27;16.57;;;24.40;73.70;;;-142.21;100.00;112049.66;5111628;28;20239;-70
2022/06/04 10:13:56;;;;;;;16.97;15.23;;;24.40;74.30;;;-142.21;100.00;112049.66;5112131;28;20341;-73
2022/06/04 10:16:29;;;;;;;16.23;14.73;;;24.50;73.40;;;-142.21;100.00;112049.66;5111721;28;20186;-72
2022/06/04 10:19:00;;;;;;;16.17;14.67;;;24.60;73.20;;;-142.21;100.00;112049.66;5093138;28;20624;-72
2022/06/04 10:21:31;;;;;;;15.10;13.67;;;24.70;74.20;;;-142.21;100.00;112049.66;5111598;27;20188;-72